Time;durP1;ratioP1;P1;durP2;ratioP2;P2;SDS_P1;SDS_P2;PMS_P1;PMS_P2;Temp;Humidity;BMP_temperature;BMP_pressure;BME280_temperature;BME280_humidity;BME280_pressure;Samples;Min_cycle;Max_cycle;Signal;HPM_P1;HPM_P2
2022/06/25 00:01:54;;;;;;;6.20;4.13;;;16.60;99.90;;;;;;5041763;28;20206;-66
2022/06/25 00:07:06;;;;;;;12.57;4.27;;;16.60;99.90;;;;;;5044488;28;20225;-66
2022/06/25 00:09:33;;;;;;;10.87;3.80;;;16.60;99.90;;;;;;5042851;28;20241;-65
2022/06/25 00:14:45;;;;;;;8.33;4.20;;;16.60;99.90;;;;;;5038983;28;20226;-66
2022/06/25 00:17:11;;;;;;;9.37;3.93;;;16.60;99.90;;;;;;5043339;28;20191;-66
2022/06/25 00:19:38;;;;;;;5.80;3.40;;;16.60;99.90;;;;;;5038745;28;20211;-66
2022/06/25 00:22:05;;;;;;;6.43;3.47;;;16.50;99.90;;;;;;5043111;28;20203;-66
2022/06/25 00:24:31;;;;;;;8.23;3.87;;;16.40;99.90;;;;;;5045300;28;20221;-66
2022/06/25 00:26:58;;;;;;;6.30;3.40;;;16.40;99.90;;;;;;5031448;28;20391;-66
2022/06/25 00:29:24;;;;;;;5.87;3.37;;;16.40;99.90;;;;;;5041247;28;20199;-66
2022/06/25 00:31:51;;;;;;;5.60;3.63;;;16.30;99.90;;;;;;5041956;28;20217;-66
2022/06/25 00:34:19;;;;;;;5.27;3.60;;;16.30;99.90;;;;;;5044413;28;20218;-66
2022/06/25 00:36:46;;;;;;;9.43;3.67;;;16.30;99.90;;;;;;5043306;28;20199;-66
2022/06/25 00:39:13;;;;;;;4.60;3.37;;;16.30;99.90;;;;;;5038151;28;20195;-66
2022/06/25 00:41:39;;;;;;;5.00;3.40;;;16.20;99.90;;;;;;5038758;28;20207;-66
2022/06/25 00:44:07;;;;;;;6.90;4.10;;;16.20;99.90;;;;;;5042554;28;20662;-66
2022/06/25 00:46:35;;;;;;;6.33;3.53;;;16.20;99.90;;;;;;5044171;28;20570;-66
2022/06/25 00:49:03;;;;;;;7.20;3.53;;;16.10;99.90;;;;;;5044726;28;20282;-66
2022/06/25 00:51:37;;;;;;;5.20;4.10;;;16.10;99.90;;;;;;5045644;28;20219;-66
2022/06/25 00:54:07;;;;;;;5.90;4.17;;;16.00;99.90;;;;;;5043292;28;20192;-66
2022/06/25 00:56:38;;;;;;;5.60;3.53;;;16.20;99.90;;;;;;5039445;28;20193;-66
2022/06/25 00:59:05;;;;;;;5.30;3.53;;;16.20;99.90;;;;;;5041895;28;20192;-66
2022/06/25 01:01:34;;;;;;;6.97;3.60;;;16.10;99.90;;;;;;5044018;28;20195;-65
2022/06/25 01:04:01;;;;;;;5.13;4.00;;;16.00;99.90;;;;;;5041456;28;20291;-66
2022/06/25 01:06:28;;;;;;;5.13;3.40;;;16.00;99.90;;;;;;5044043;28;20195;-66
2022/06/25 01:08:58;;;;;;;5.03;4.00;;;15.90;99.90;;;;;;5040007;28;20214;-66
2022/06/25 01:11:25;;;;;;;8.40;3.90;;;15.90;99.90;;;;;;5037935;28;20315;-66
2022/06/25 01:13:53;;;;;;;6.00;3.87;;;15.90;99.90;;;;;;5041262;28;20195;-66
2022/06/25 01:16:21;;;;;;;4.33;3.53;;;15.80;99.90;;;;;;5037167;28;20203;-65
2022/06/25 01:18:48;;;;;;;6.93;4.33;;;15.90;99.90;;;;;;5043037;28;20206;-66
2022/06/25 01:21:15;;;;;;;8.33;3.93;;;15.90;99.90;;;;;;5036770;28;20200;-66
2022/06/25 01:23:42;;;;;;;5.80;3.97;;;15.90;99.90;;;;;;5042119;28;20199;-66
2022/06/25 01:26:09;;;;;;;4.77;4.13;;;15.90;99.90;;;;;;5040772;28;20497;-66
2022/06/25 01:28:35;;;;;;;5.07;3.50;;;15.90;99.90;;;;;;5043956;28;20199;-66
2022/06/25 01:31:02;;;;;;;5.00;3.67;;;15.80;99.90;;;;;;5039938;28;20566;-66
2022/06/25 01:33:28;;;;;;;5.10;3.80;;;15.80;99.90;;;;;;5043180;28;20755;-65
2022/06/25 01:35:55;;;;;;;6.20;4.33;;;15.80;99.90;;;;;;5034760;28;20219;-66
2022/06/25 01:38:22;;;;;;;5.57;3.73;;;15.80;99.90;;;;;;5042930;28;20201;-66
2022/06/25 01:40:48;;;;;;;5.00;3.80;;;15.80;99.90;;;;;;5037871;28;20198;-66
2022/06/25 01:43:15;;;;;;;7.87;4.27;;;15.80;99.90;;;;;;5036019;28;20206;-66
2022/06/25 01:45:42;;;;;;;6.23;3.90;;;15.80;99.90;;;;;;5035673;28;20226;-66
2022/06/25 01:48:08;;;;;;;6.87;3.90;;;15.80;99.90;;;;;;5039369;28;20560;-66
2022/06/25 01:50:36;;;;;;;4.40;3.80;;;15.80;99.90;;;;;;5038802;28;20218;-66
2022/06/25 01:53:04;;;;;;;4.50;3.80;;;15.80;99.90;;;;;;5039770;28;20192;-66
2022/06/25 01:55:32;;;;;;;5.97;3.87;;;15.80;99.90;;;;;;5034238;28;20238;-65
2022/06/25 01:58:00;;;;;;;6.60;4.10;;;15.80;99.90;;;;;;5038401;28;20246;-66
2022/06/25 02:00:29;;;;;;;4.77;3.90;;;15.80;99.90;;;;;;5042303;28;20203;-66
2022/06/25 02:02:56;;;;;;;4.87;4.10;;;15.70;99.90;;;;;;5033790;28;20203;-66
2022/06/25 02:08:15;;;;;;;5.77;3.90;;;15.70;99.90;;;;;;5045922;28;20572;-66
2022/06/25 02:10:42;;;;;;;4.90;3.70;;;15.60;99.90;;;;;;5043137;28;20410;-65
2022/06/25 02:13:09;;;;;;;12.00;3.97;;;15.60;99.90;;;;;;5039818;28;20188;-66
2022/06/25 02:15:36;;;;;;;4.93;3.80;;;15.60;99.90;;;;;;5045386;28;20222;-66
2022/06/25 02:18:03;;;;;;;4.90;3.60;;;15.60;99.90;;;;;;5042554;28;20195;-66
2022/06/25 02:20:30;;;;;;;4.23;3.60;;;15.60;99.90;;;;;;5041015;28;20203;-65
2022/06/25 02:22:57;;;;;;;6.63;3.70;;;15.60;99.90;;;;;;5042196;28;20196;-66
2022/06/25 02:25:25;;;;;;;7.43;3.80;;;15.60;99.90;;;;;;5040185;28;20237;-65
2022/06/25 02:27:51;;;;;;;4.30;3.73;;;15.60;99.90;;;;;;5042950;28;20207;-65
2022/06/25 02:30:18;;;;;;;4.63;3.97;;;15.60;99.90;;;;;;5038950;28;20231;-66
2022/06/25 02:32:45;;;;;;;6.10;4.00;;;15.60;99.90;;;;;;5042297;28;20195;-66
2022/06/25 02:35:12;;;;;;;5.07;3.50;;;15.70;99.90;;;;;;5043239;28;20577;-66
2022/06/25 02:37:38;;;;;;;5.67;3.70;;;15.70;99.90;;;;;;5044627;28;20670;-66
2022/06/25 02:40:06;;;;;;;6.30;4.00;;;15.80;99.90;;;;;;5043443;28;20191;-66
2022/06/25 02:42:40;;;;;;;9.20;4.50;;;15.80;99.90;;;;;;5044377;28;20205;-66
2022/06/25 02:45:08;;;;;;;11.83;4.40;;;15.90;99.90;;;;;;5044557;28;20214;-66
2022/06/25 02:47:35;;;;;;;7.00;3.97;;;15.90;99.90;;;;;;5048069;28;20210;-66
2022/06/25 02:50:04;;;;;;;5.00;3.90;;;16.00;99.90;;;;;;5044544;28;20202;-66
2022/06/25 02:52:31;;;;;;;4.30;3.50;;;16.00;99.90;;;;;;5043369;28;20226;-66
2022/06/25 02:54:57;;;;;;;5.17;3.90;;;16.00;99.90;;;;;;5044241;28;20218;-66
2022/06/25 03:00:10;;;;;;;5.93;3.97;;;15.80;99.90;;;;;;5041788;28;20200;-65
2022/06/25 03:02:37;;;;;;;4.43;4.03;;;15.80;99.90;;;;;;5043836;28;20684;-66
2022/06/25 03:05:04;;;;;;;6.17;3.63;;;15.80;99.90;;;;;;5040803;28;20211;-66
2022/06/25 03:07:31;;;;;;;5.63;3.50;;;15.80;99.90;;;;;;5044117;28;20198;-66
2022/06/25 03:09:58;;;;;;;5.30;3.83;;;15.60;99.90;;;;;;5043455;28;20203;-66
2022/06/25 03:12:25;;;;;;;5.63;4.17;;;15.50;99.90;;;;;;5042665;28;20233;-66
2022/06/25 03:14:51;;;;;;;7.63;4.10;;;15.60;99.90;;;;;;5041423;28;20222;-66
2022/06/25 03:17:18;;;;;;;7.67;4.40;;;15.70;99.90;;;;;;5040199;28;20219;-66
2022/06/25 03:19:44;;;;;;;7.73;4.70;;;15.70;99.90;;;;;;5042252;28;20203;-66
2022/06/25 03:22:11;;;;;;;7.03;4.30;;;15.60;99.90;;;;;;5042545;28;20192;-66
2022/06/25 03:24:38;;;;;;;4.40;3.70;;;15.60;99.90;;;;;;5039548;28;20272;-66
2022/06/25 03:27:05;;;;;;;5.07;3.90;;;15.50;99.90;;;;;;5039653;28;20196;-66
2022/06/25 03:29:31;;;;;;;5.10;3.80;;;15.40;99.90;;;;;;5040649;28;20540;-66
2022/06/25 03:31:58;;;;;;;5.87;4.20;;;15.40;99.90;;;;;;5039553;28;20219;-66
2022/06/25 03:34:25;;;;;;;8.00;4.20;;;15.30;99.90;;;;;;5041278;28;20293;-66
2022/06/25 03:36:52;;;;;;;5.77;4.20;;;15.30;99.90;;;;;;5040924;28;20191;-66
2022/06/25 03:39:18;;;;;;;6.77;4.37;;;15.30;99.90;;;;;;5041424;28;20200;-67
2022/06/25 03:41:45;;;;;;;5.23;3.60;;;15.30;99.90;;;;;;5039514;28;20229;-66
2022/06/25 03:44:12;;;;;;;6.90;4.33;;;15.30;99.90;;;;;;5040122;28;20226;-66
2022/06/25 03:46:39;;;;;;;6.57;4.30;;;15.40;99.90;;;;;;5042326;28;20210;-66
2022/06/25 03:49:07;;;;;;;7.27;4.40;;;15.40;99.90;;;;;;5038965;28;20192;-66
2022/06/25 03:51:34;;;;;;;4.93;4.33;;;15.40;99.90;;;;;;5038319;28;20207;-66
2022/06/25 03:54:00;;;;;;;6.83;4.53;;;15.50;99.90;;;;;;5041416;28;20192;-66
2022/06/25 03:56:27;;;;;;;7.57;4.53;;;15.50;99.90;;;;;;5037929;28;20190;-66
2022/06/25 03:58:54;;;;;;;15.50;5.80;;;15.60;99.90;;;;;;5039591;28;20195;-66
2022/06/25 04:01:23;;;;;;;7.43;5.20;;;15.70;99.90;;;;;;5040564;28;20200;-66
2022/06/25 04:03:50;;;;;;;6.77;5.43;;;15.80;99.90;;;;;;5037787;28;20631;-66
2022/06/25 04:06:16;;;;;;;8.70;4.70;;;15.80;99.90;;;;;;5039780;28;20551;-66
2022/06/25 04:08:43;;;;;;;11.93;5.80;;;15.90;99.90;;;;;;5043070;28;20329;-66
2022/06/25 04:11:10;;;;;;;7.67;4.93;;;16.00;99.90;;;;;;5038659;28;20237;-66
2022/06/25 04:13:37;;;;;;;9.13;5.10;;;16.10;99.90;;;;;;5041359;28;20199;-66
2022/06/25 04:16:03;;;;;;;7.73;6.40;;;16.10;99.90;;;;;;5038154;28;20595;-66
2022/06/25 04:18:31;;;;;;;11.80;5.57;;;16.20;99.90;;;;;;5041235;28;20662;-66
2022/06/25 04:20:59;;;;;;;8.93;5.37;;;16.30;99.90;;;;;;5042495;28;20750;-66
2022/06/25 04:23:26;;;;;;;9.67;6.10;;;16.30;99.90;;;;;;5041380;28;20199;-66
2022/06/25 04:25:53;;;;;;;10.27;5.80;;;16.50;99.90;;;;;;5038984;28;20219;-66
2022/06/25 04:31:06;;;;;;;8.43;6.47;;;16.60;99.90;;;;;;5037674;28;20216;-66
2022/06/25 04:33:32;;;;;;;7.87;6.53;;;16.80;99.90;;;;;;5037495;28;20621;-66
2022/06/25 04:35:59;;;;;;;9.53;5.90;;;16.90;99.90;;;;;;5041986;28;20375;-66
2022/06/25 04:38:26;;;;;;;11.57;6.17;;;16.90;99.90;;;;;;5039731;28;20203;-66
2022/06/25 04:40:52;;;;;;;7.53;5.50;;;16.90;99.90;;;;;;5038440;28;20195;-66
2022/06/25 04:43:19;;;;;;;7.40;5.80;;;16.90;99.90;;;;;;5038686;28;20202;-66
2022/06/25 04:45:46;;;;;;;9.70;5.87;;;16.80;99.90;;;;;;5039348;28;20425;-66
2022/06/25 04:48:12;;;;;;;8.97;5.70;;;16.80;99.90;;;;;;5037973;28;20204;-66
2022/06/25 04:50:46;;;;;;;8.23;6.00;;;16.80;99.90;;;;;;5039753;28;20719;-66
2022/06/25 04:53:13;;;;;;;9.70;6.93;;;16.90;99.90;;;;;;5038351;28;20207;-66
2022/06/25 04:55:40;;;;;;;13.57;8.33;;;17.00;99.90;;;;;;5039880;28;20225;-66
2022/06/25 04:58:06;;;;;;;11.90;8.17;;;17.10;99.90;;;;;;5036886;28;20195;-66
2022/06/25 05:00:33;;;;;;;13.80;8.53;;;17.20;99.90;;;;;;5040151;28;20194;-66
2022/06/25 05:03:07;;;;;;;17.57;10.03;;;17.20;99.90;;;;;;5036801;28;20530;-66
2022/06/25 05:05:34;;;;;;;18.13;10.93;;;17.30;99.90;;;;;;5036253;28;20211;-66
2022/06/25 05:08:01;;;;;;;14.27;10.13;;;17.40;99.90;;;;;;5045219;28;20196;-67
2022/06/25 05:10:27;;;;;;;14.33;9.43;;;17.50;99.90;;;;;;5038583;28;20677;-67
2022/06/25 05:13:12;;;;;;;13.20;9.63;;;17.80;99.90;;;;;;5036543;28;20795;-67
2022/06/25 05:15:43;;;;;;;16.20;9.03;;;18.20;99.90;;;;;;5035284;28;20222;-67
2022/06/25 05:18:11;;;;;;;16.77;8.70;;;18.40;99.90;;;;;;5049053;28;20202;-67
2022/06/25 05:20:43;;;;;;;9.93;7.50;;;18.60;99.90;;;;;;5038957;28;20672;-67
2022/06/25 05:23:10;;;;;;;13.27;7.57;;;18.90;99.90;;;;;;5035290;28;20201;-67
2022/06/25 05:25:38;;;;;;;8.97;6.60;;;19.10;99.90;;;;;;5034528;28;20740;-67
2022/06/25 05:28:05;;;;;;;12.03;6.83;;;19.20;99.90;;;;;;5036262;28;20184;-67
2022/06/25 05:30:33;;;;;;;11.23;7.73;;;19.30;99.90;;;;;;5038854;28;20199;-67
2022/06/25 05:32:59;;;;;;;10.00;7.40;;;19.30;99.90;;;;;;5034397;28;20705;-67
2022/06/25 05:35:26;;;;;;;8.57;6.20;;;19.30;99.90;;;;;;5037684;28;20701;-67
2022/06/25 05:37:53;;;;;;;9.73;7.28;;;19.30;99.90;;;;;;5033259;28;20187;-67
2022/06/25 05:40:20;;;;;;;11.27;5.03;;;19.20;99.90;;;;;;5035995;28;20617;-67
2022/06/25 05:42:47;;;;;;;12.20;6.17;;;19.10;99.90;;;;;;5039488;28;20198;-66
2022/06/25 05:45:14;;;;;;;8.10;5.73;;;19.10;99.90;;;;;;5035699;28;20215;-66
2022/06/25 05:47:40;;;;;;;8.60;5.83;;;19.30;99.90;;;;;;5038155;28;20202;-67
2022/06/25 05:50:08;;;;;;;10.85;6.53;;;19.40;99.90;;;;;;5035123;28;20211;-67
2022/06/25 05:52:35;;;;;;;9.80;6.60;;;19.60;99.90;;;;;;5040506;28;20277;-67
2022/06/25 05:55:03;;;;;;;8.63;5.60;;;19.80;99.90;;;;;;5035287;28;20677;-67
2022/06/25 05:57:29;;;;;;;8.80;5.47;;;19.80;99.90;;;;;;5036567;28;20663;-67
2022/06/25 05:59:57;;;;;;;5.97;5.13;;;19.90;99.90;;;;;;5038174;28;20609;-67
2022/06/25 06:02:26;;;;;;;5.65;4.50;;;20.10;99.90;;;;;;5043104;28;20199;-67
2022/06/25 06:04:54;;;;;;;7.25;4.32;;;20.20;99.90;;;;;;5035160;28;20697;-66
2022/06/25 06:07:21;;;;;;;6.97;4.38;;;20.50;99.90;;;;;;5034790;28;20203;-67
2022/06/25 06:09:48;;;;;;;5.28;4.55;;;20.80;99.90;;;;;;5036494;28;20195;-67
2022/06/25 06:12:15;;;;;;;6.25;4.60;;;20.60;99.90;;;;;;5034572;28;20226;-66
2022/06/25 06:14:42;;;;;;;7.07;4.35;;;20.60;99.90;;;;;;5037056;28;20214;-68
2022/06/25 06:17:09;;;;;;;7.32;4.80;;;20.70;99.90;;;;;;5034813;28;20203;-68
2022/06/25 06:19:36;;;;;;;8.68;5.30;;;20.80;99.90;;;;;;5042914;28;20200;-66
2022/06/25 06:22:02;;;;;;;13.13;7.03;;;20.80;99.90;;;;;;5034851;28;20199;-66
2022/06/25 06:24:29;;;;;;;7.63;6.28;;;20.80;99.90;;;;;;5035804;28;20234;-67
2022/06/25 06:26:56;;;;;;;12.10;6.85;;;20.90;99.90;;;;;;5035109;28;20214;-67
2022/06/25 06:29:23;;;;;;;8.82;6.57;;;21.00;99.90;;;;;;5034711;28;20208;-67
2022/06/25 06:31:49;;;;;;;10.88;5.70;;;21.10;99.90;;;;;;5038206;28;20631;-69
2022/06/25 06:34:16;;;;;;;8.77;5.65;;;21.20;99.90;;;;;;5039031;28;20212;-68
2022/06/25 06:36:43;;;;;;;9.45;5.72;;;21.20;99.90;;;;;;5037104;28;20188;-68
2022/06/25 06:39:10;;;;;;;6.43;5.32;;;21.20;99.90;;;;;;5034445;28;20192;-68
2022/06/25 06:41:36;;;;;;;6.97;4.75;;;21.40;99.90;;;;;;5034922;28;20665;-69
2022/06/25 06:44:03;;;;;;;7.07;5.28;;;21.40;99.90;;;;;;5039874;28;20443;-68
2022/06/25 06:46:36;;;;;;;8.30;5.07;;;21.50;99.90;;;;;;5036879;28;20203;-69
2022/06/25 06:49:03;;;;;;;8.55;5.50;;;21.50;99.90;;;;;;5037913;28;20199;-68
2022/06/25 06:51:30;;;;;;;9.82;6.28;;;21.50;99.90;;;;;;5036667;28;20230;-68
2022/06/25 06:53:56;;;;;;;7.13;5.95;;;21.30;99.90;;;;;;5037348;28;20206;-68
2022/06/25 06:56:23;;;;;;;10.77;6.35;;;21.30;99.90;;;;;;5039370;28;20568;-68
2022/06/25 06:58:50;;;;;;;11.60;7.07;;;21.20;99.90;;;;;;5038890;28;20202;-68
2022/06/25 07:01:16;;;;;;;11.30;6.88;;;21.10;99.90;;;;;;5037401;28;20187;-69
2022/06/25 07:03:43;;;;;;;9.40;7.22;;;21.20;99.90;;;;;;5045790;28;20381;-68
2022/06/25 07:06:10;;;;;;;11.30;7.43;;;21.00;99.90;;;;;;5044931;28;20215;-69
2022/06/25 07:08:37;;;;;;;10.45;7.07;;;21.10;99.90;;;;;;5037473;28;20197;-69
2022/06/25 07:11:28;;;;;;;10.85;7.32;;;21.30;99.90;;;;;;5040080;28;20611;-68
2022/06/25 07:13:52;;;;;;;10.15;8.30;;;21.40;99.90;;;;;;5037880;28;20677;-68
2022/06/25 07:16:19;;;;;;;9.73;7.80;;;21.50;99.90;;;;;;5036539;28;20215;-68
2022/06/25 07:18:46;;;;;;;8.48;7.50;;;21.50;99.90;;;;;;5037752;28;20198;-68
2022/06/25 07:21:13;;;;;;;9.38;7.68;;;21.60;99.90;;;;;;5036460;28;20200;-68
2022/06/25 07:23:40;;;;;;;9.18;7.88;;;21.90;99.90;;;;;;5038503;28;20206;-68
2022/06/25 07:26:06;;;;;;;12.38;7.63;;;22.30;99.90;;;;;;5033549;28;20222;-67
2022/06/25 07:28:33;;;;;;;8.40;6.88;;;22.60;99.90;;;;;;5039433;28;20200;-67
2022/06/25 07:31:00;;;;;;;9.95;7.05;;;22.70;99.90;;;;;;5035894;28;20191;-67
2022/06/25 07:33:29;;;;;;;9.60;7.00;;;22.90;99.90;;;;;;5037098;28;20230;-67
2022/06/25 07:35:57;;;;;;;8.45;6.68;;;23.20;99.90;;;;;;5036591;28;20735;-67
2022/06/25 07:38:24;;;;;;;9.00;6.63;;;23.20;99.90;;;;;;5035208;28;20196;-67
2022/06/25 07:40:51;;;;;;;8.15;7.00;;;23.30;99.90;;;;;;5036963;28;20195;-67
2022/06/25 07:43:18;;;;;;;7.65;6.60;;;23.40;99.90;;;;;;5033993;28;20674;-67
2022/06/25 07:45:44;;;;;;;7.82;6.72;;;23.30;99.90;;;;;;5034032;28;20223;-67
2022/06/25 07:48:11;;;;;;;9.80;5.95;;;23.30;99.90;;;;;;5041313;28;20231;-68
2022/06/25 07:53:23;;;;;;;8.27;5.82;;;23.40;99.90;;;;;;5035445;28;20255;-68
2022/06/25 07:55:50;;;;;;;11.25;7.32;;;23.60;99.90;;;;;;5036315;28;20620;-68
2022/06/25 07:58:17;;;;;;;12.15;6.78;;;23.80;99.90;;;;;;5042066;28;20661;-68
2022/06/25 08:00:44;;;;;;;8.40;6.38;;;23.90;99.90;;;;;;5034784;28;20195;-67
2022/06/25 08:03:11;;;;;;;11.85;7.10;;;23.70;99.90;;;;;;5033254;28;20191;-67
2022/06/25 08:05:38;;;;;;;8.43;7.18;;;23.60;99.90;;;;;;5037752;28;21367;-67
2022/06/25 08:08:05;;;;;;;12.93;7.22;;;23.70;99.90;;;;;;5034944;28;20191;-67
2022/06/25 08:10:31;;;;;;;8.88;6.18;;;24.10;99.90;;;;;;5034789;28;20206;-67
2022/06/25 08:12:58;;;;;;;6.95;5.82;;;24.40;99.90;;;;;;5037877;28;20290;-67
2022/06/25 08:15:25;;;;;;;9.23;5.90;;;24.30;99.90;;;;;;5037876;28;20227;-67
2022/06/25 08:17:52;;;;;;;7.82;6.35;;;24.20;99.90;;;;;;5036083;28;20342;-67
2022/06/25 08:20:19;;;;;;;7.03;6.22;;;23.70;99.90;;;;;;5034332;28;20219;-67
2022/06/25 08:22:45;;;;;;;8.82;6.03;;;23.50;99.90;;;;;;5034026;28;20206;-67
2022/06/25 08:25:12;;;;;;;7.70;6.40;;;23.50;99.90;;;;;;5034753;28;20219;-68
2022/06/25 08:27:50;;;;;;;7.38;6.45;;;23.30;99.90;;;;;;5036606;28;20210;-66
2022/06/25 08:30:18;;;;;;;8.65;6.63;;;23.20;99.90;;;;;;5033375;28;20206;-66
2022/06/25 08:32:45;;;;;;;7.75;5.90;;;23.20;99.90;;;;;;5038398;28;20632;-67
2022/06/25 08:35:13;;;;;;;9.88;6.63;;;23.20;99.90;;;;;;5034314;28;20514;-67
2022/06/25 08:37:43;;;;;;;7.32;6.57;;;23.40;99.90;;;;;;5036204;28;20196;-67
2022/06/25 08:40:10;;;;;;;9.15;6.30;;;23.50;99.90;;;;;;5034644;28;20195;-67
2022/06/25 08:42:37;;;;;;;8.05;6.03;;;23.60;99.90;;;;;;5034005;28;20294;-69
2022/06/25 08:45:05;;;;;;;7.15;6.20;;;23.80;99.90;;;;;;5034222;28;20597;-69
2022/06/25 08:47:32;;;;;;;8.90;7.05;;;24.10;99.90;;;;;;5041559;28;20198;-69
2022/06/25 08:50:00;;;;;;;10.60;6.35;;;24.00;99.90;;;;;;5032432;28;20191;-68
2022/06/25 08:52:28;;;;;;;8.07;6.78;;;24.00;99.90;;;;;;5033173;28;20245;-68
2022/06/25 08:54:56;;;;;;;9.30;6.53;;;23.60;99.90;;;;;;5043330;28;20226;-68
2022/06/25 08:57:22;;;;;;;7.15;5.72;;;23.30;99.90;;;;;;5039414;28;20289;-68
2022/06/25 08:59:49;;;;;;;7.55;6.22;;;23.30;99.90;;;;;;5040521;28;20252;-68
2022/06/25 09:02:16;;;;;;;8.45;6.70;;;23.40;99.90;;;;;;5033287;28;20634;-67
2022/06/25 09:04:43;;;;;;;8.23;6.88;;;23.50;99.90;;;;;;5034689;28;20222;-68
2022/06/25 09:07:19;;;;;;;9.48;6.05;;;23.30;99.90;;;;;;5033254;28;20206;-67
2022/06/25 09:09:50;;;;;;;8.70;6.55;;;23.20;99.90;;;;;;5034628;28;20195;-67
2022/06/25 09:12:18;;;;;;;7.72;5.78;;;23.50;99.90;;;;;;5032652;28;20211;-67
2022/06/25 09:14:45;;;;;;;9.48;6.07;;;23.80;99.90;;;;;;5042039;28;20227;-68
2022/06/25 09:17:14;;;;;;;9.57;6.43;;;24.00;99.90;;;;;;5032598;28;20215;-68
2022/06/25 09:19:50;;;;;;;7.70;6.32;;;24.00;99.90;;;;;;5032376;28;20195;-68
2022/06/25 09:22:19;;;;;;;11.60;5.85;;;24.00;99.90;;;;;;5032374;28;20190;-68
2022/06/25 09:24:46;;;;;;;8.43;5.75;;;24.30;99.90;;;;;;5034413;28;20214;-68
2022/06/25 09:27:21;;;;;;;8.50;5.85;;;24.60;99.90;;;;;;5032583;28;20290;-69
2022/06/25 09:29:50;;;;;;;8.32;5.80;;;24.70;99.90;;;;;;5033860;28;20602;-69
2022/06/25 09:32:18;;;;;;;7.82;5.85;;;24.90;99.90;;;;;;5031357;28;20246;-67
2022/06/25 09:34:45;;;;;;;10.90;5.95;;;24.80;99.90;;;;;;5033578;28;20301;-68
2022/06/25 09:37:19;;;;;;;8.60;5.15;;;25.00;99.90;;;;;;5032052;28;20199;-68
2022/06/25 09:39:47;;;;;;;6.82;5.63;;;25.20;99.90;;;;;;5038252;28;20195;-68
2022/06/25 09:42:23;;;;;;;6.70;5.80;;;25.30;99.90;;;;;;5031951;28;20203;-68
2022/06/25 09:44:58;;;;;;;8.45;6.00;;;25.50;99.90;;;;;;5031998;28;20226;-68
2022/06/25 09:47:26;;;;;;;8.98;5.03;;;25.40;99.90;;;;;;5031875;28;20203;-68
2022/06/25 09:50:04;;;;;;;6.43;5.15;;;25.30;99.90;;;;;;5036139;28;20203;-67
2022/06/25 09:52:32;;;;;;;8.55;4.30;;;25.30;99.90;;;;;;5031792;28;20215;-67
2022/06/25 09:54:59;;;;;;;6.70;4.38;;;25.30;99.90;;;;;;5031656;28;20753;-68
2022/06/25 09:57:27;;;;;;;5.63;3.58;;;25.50;99.90;;;;;;5031597;28;20215;-67
2022/06/25 09:59:58;;;;;;;3.53;3.22;;;25.70;99.90;;;;;;5032262;28;20202;-67
2022/06/25 10:02:28;;;;;;;4.07;3.67;;;26.00;99.90;;;;;;5030995;28;20204;-67
2022/06/25 10:05:03;;;;;;;9.63;4.60;;;26.30;99.90;;;;;;5030788;28;20219;-68
2022/06/25 10:10:19;;;;;;;6.28;4.00;;;26.80;99.90;;;;;;5030935;28;20195;-68
2022/06/25 10:12:47;;;;;;;7.05;4.45;;;27.20;99.90;;;;;;5031195;28;20226;-68
2022/06/25 10:15:19;;;;;;;8.68;4.38;;;27.70;99.90;;;;;;5030726;28;20219;-68
2022/06/25 10:17:47;;;;;;;6.82;4.25;;;27.90;99.90;;;;;;5030724;28;20198;-68
2022/06/25 10:20:16;;;;;;;6.30;3.75;;;28.00;99.90;;;;;;5029282;28;20716;-68
2022/06/25 10:22:45;;;;;;;5.35;3.78;;;28.10;99.90;;;;;;5039325;28;20206;-68
2022/06/25 10:25:14;;;;;;;4.20;3.80;;;28.20;99.90;;;;;;5038470;28;20215;-68
2022/06/25 10:27:46;;;;;;;5.25;3.60;;;27.90;99.90;;;;;;5033668;28;20218;-68
2022/06/25 10:30:15;;;;;;;4.10;3.65;;;27.60;99.90;;;;;;5034814;28;20674;-68
2022/06/25 10:32:44;;;;;;;4.55;3.40;;;27.60;99.90;;;;;;5035624;28;20238;-68
2022/06/25 10:35:30;;;;;;;6.55;3.63;;;27.30;99.90;;;;;;5034306;28;20215;-67
2022/06/25 10:38:11;;;;;;;4.95;3.50;;;26.80;99.90;;;;;;5039342;28;20550;-67
2022/06/25 10:40:47;;;;;;;4.07;3.35;;;27.00;99.90;;;;;;5033847;28;20705;-68
2022/06/25 10:43:39;;;;;;;6.15;3.22;;;27.40;99.90;;;;;;5039783;28;20198;-68
2022/06/25 10:46:30;;;;;;;5.70;3.45;;;27.70;99.90;;;;;;5032691;28;20219;-68
2022/06/25 10:49:02;;;;;;;3.78;2.83;;;27.90;99.90;;;;;;5033825;28;20192;-68
2022/06/25 10:51:30;;;;;;;3.78;2.75;;;28.20;99.90;;;;;;5033867;28;20196;-68
2022/06/25 10:53:59;;;;;;;3.25;2.80;;;28.60;99.90;;;;;;5033996;28;20212;-68
2022/06/25 10:56:30;;;;;;;4.10;2.70;;;28.90;99.90;;;;;;5032549;28;20199;-68
2022/06/25 10:58:58;;;;;;;3.97;2.80;;;28.80;99.90;;;;;;5040574;28;20620;-68
2022/06/25 11:01:28;;;;;;;5.32;2.90;;;28.50;99.90;;;;;;5033442;28;20571;-68
2022/06/25 11:03:58;;;;;;;4.63;2.95;;;28.50;99.90;;;;;;5033165;28;20249;-68
2022/06/25 11:06:34;;;;;;;6.00;3.20;;;28.40;99.90;;;;;;5047544;28;20198;-68
2022/06/25 11:09:07;;;;;;;3.47;2.83;;;28.30;99.90;;;;;;5033322;28;20565;-68
2022/06/25 11:11:35;;;;;;;5.72;3.05;;;28.20;99.90;;;;;;5032007;28;20207;-68
2022/06/25 11:14:03;;;;;;;4.03;2.80;;;28.40;99.90;;;;;;5031631;28;20478;-68
2022/06/25 11:16:30;;;;;;;3.85;2.70;;;28.70;99.90;;;;;;5032878;28;20203;-68
2022/06/25 11:18:59;;;;;;;3.53;2.60;;;28.80;99.90;;;;;;5040391;28;20588;-68
2022/06/25 11:21:26;;;;;;;3.42;2.60;;;28.70;99.90;;;;;;5033785;28;20198;-67
2022/06/25 11:24:04;;;;;;;2.83;2.55;;;29.00;99.90;;;;;;5033102;28;20206;-67
2022/06/25 11:29:25;;;;;;;4.70;2.60;;;29.50;99.90;;;;;;5032405;28;20191;-68
2022/06/25 11:31:53;;;;;;;3.47;2.58;;;29.60;99.90;;;;;;5032839;28;20230;-68
2022/06/25 11:34:21;;;;;;;5.13;2.72;;;28.60;99.90;;;;;;5038365;28;20234;-68
2022/06/25 11:37:03;;;;;;;3.85;2.53;;;28.10;99.90;;;;;;5033101;28;20199;-68
2022/06/25 11:39:31;;;;;;;2.92;2.60;;;27.90;99.90;;;;;;5031355;28;20651;-66
2022/06/25 11:41:58;;;;;;;3.10;2.35;;;27.80;99.90;;;;;;5032031;28;20192;-66
2022/06/25 11:44:25;;;;;;;4.18;2.50;;;28.20;99.90;;;;;;5032055;28;20222;-66
2022/06/25 11:46:53;;;;;;;4.82;2.58;;;28.50;99.90;;;;;;5032554;28;20195;-68
2022/06/25 11:49:22;;;;;;;2.85;2.50;;;28.90;99.90;;;;;;5036712;28;20294;-67
2022/06/25 11:51:51;;;;;;;2.80;2.47;;;28.80;99.90;;;;;;5040650;28;20202;-67
2022/06/25 11:54:24;;;;;;;3.22;2.40;;;28.80;99.90;;;;;;5031110;28;20219;-67
2022/06/25 11:56:54;;;;;;;3.28;2.40;;;29.20;99.90;;;;;;5031983;28;20195;-68
2022/06/25 11:59:29;;;;;;;2.35;2.17;;;29.50;99.90;;;;;;5036929;28;20206;-68
2022/06/25 12:01:58;;;;;;;2.95;2.17;;;29.60;99.90;;;;;;5032215;28;20199;-69
2022/06/25 12:04:26;;;;;;;4.20;2.53;;;29.60;99.90;;;;;;5034906;28;20254;-69
2022/06/25 12:06:53;;;;;;;4.13;2.58;;;29.40;99.90;;;;;;5031691;28;20203;-68
2022/06/25 12:09:22;;;;;;;4.28;2.13;;;29.40;99.90;;;;;;5031150;28;20199;-70
2022/06/25 12:11:52;;;;;;;3.10;2.13;;;29.60;99.90;;;;;;5030914;28;20203;-70
2022/06/25 12:14:31;;;;;;;2.60;2.30;;;29.50;99.90;;;;;;5029340;28;20231;-69
2022/06/25 12:16:59;;;;;;;4.63;2.15;;;29.50;99.90;;;;;;5033827;28;20206;-68
2022/06/25 12:19:52;;;;;;;1.95;1.80;;;29.60;99.90;;;;;;5035367;28;20199;-69
2022/06/25 12:22:30;;;;;;;3.78;2.17;;;29.80;99.90;;;;;;5029174;28;20206;-69
2022/06/25 12:25:00;;;;;;;2.60;2.10;;;30.40;99.90;;;;;;5031214;28;20215;-68
2022/06/25 12:27:27;;;;;;;4.18;2.30;;;30.80;99.90;;;;;;5031432;28;20403;-68
2022/06/25 12:29:56;;;;;;;6.53;2.25;;;30.50;99.90;;;;;;5030688;28;20601;-69
2022/06/25 12:32:40;;;;;;;2.75;2.20;;;30.40;99.90;;;;;;5030264;28;20195;-69
2022/06/25 12:35:27;;;;;;;2.95;2.13;;;30.70;99.90;;;;;;5040113;28;20218;-69
2022/06/25 12:38:14;;;;;;;2.22;2.03;;;30.50;99.90;;;;;;5035294;28;20203;-69
2022/06/25 12:40:48;;;;;;;3.42;2.15;;;30.00;99.90;;;;;;5030309;28;20222;-69
2022/06/25 12:43:16;;;;;;;3.70;2.60;;;29.80;99.90;;;;;;5029860;28;20207;-68
2022/06/25 12:45:45;;;;;;;4.18;2.20;;;29.70;99.90;;;;;;5029921;28;20234;-67
2022/06/25 12:48:13;;;;;;;3.05;2.13;;;29.70;99.90;;;;;;5041455;28;20199;-67
2022/06/25 12:50:40;;;;;;;3.05;2.15;;;29.60;99.90;;;;;;5038817;28;20310;-67
2022/06/25 12:53:08;;;;;;;4.22;2.30;;;29.60;99.90;;;;;;5029550;28;20243;-67
2022/06/25 12:55:36;;;;;;;1.90;1.70;;;29.40;99.90;;;;;;5029242;28;20219;-67
2022/06/25 12:58:09;;;;;;;2.20;1.92;;;29.10;99.90;;;;;;5036957;28;20225;-67
2022/06/25 13:00:37;;;;;;;2.92;1.88;;;29.00;99.90;;;;;;5034599;28;20199;-67
2022/06/25 13:03:12;;;;;;;5.00;2.10;;;29.00;99.90;;;;;;5029412;28;20203;-67
2022/06/25 13:05:39;;;;;;;3.65;2.20;;;29.10;99.90;;;;;;5029463;28;20246;-67
2022/06/25 13:08:06;;;;;;;4.88;2.63;;;29.20;99.90;;;;;;5029420;28;20191;-67
2022/06/25 13:10:33;;;;;;;4.55;2.22;;;29.00;99.90;;;;;;5029275;28;20200;-67
2022/06/25 13:13:03;;;;;;;3.58;2.17;;;28.80;99.90;;;;;;5028814;28;20219;-67
2022/06/25 13:15:29;;;;;;;2.28;1.75;;;28.70;99.90;;;;;;5027090;28;20663;-67